createdAt,value
2018-09-10T00:01:49.676Z,7.23
2018-09-10T00:04:24.428Z,6.93
2018-09-10T00:06:59.520Z,6.77
2018-09-10T00:09:33.892Z,6.97
2018-09-10T00:12:08.328Z,7.67
2018-09-10T00:14:42.832Z,7.53
2018-09-10T00:17:17.361Z,7.47
2018-09-10T00:19:51.653Z,7.07
2018-09-10T00:22:26.432Z,7.33
2018-09-10T00:25:00.873Z,7.57
2018-09-10T00:27:35.332Z,7.07
2018-09-10T00:30:10.580Z,7.43
2018-09-10T00:32:45.116Z,7.60
2018-09-10T00:35:20.047Z,7.13
2018-09-10T00:37:54.394Z,7.00
2018-09-10T00:40:28.729Z,7.43
2018-09-10T00:43:03.225Z,7.43
2018-09-10T00:45:37.721Z,6.73
2018-09-10T00:48:12.049Z,6.57
2018-09-10T00:50:46.844Z,6.97
2018-09-10T00:53:21.348Z,7.10
2018-09-10T00:55:56.308Z,7.10
2018-09-10T00:58:30.848Z,7.70
2018-09-10T01:01:05.465Z,7.60
2018-09-10T01:03:40.041Z,6.77
2018-09-10T01:06:14.720Z,6.20
2018-09-10T01:08:49.244Z,8.07
2018-09-10T01:11:24.082Z,7.27
2018-09-10T01:13:58.848Z,7.10
2018-09-10T01:16:33.155Z,6.80
2018-09-10T01:19:07.884Z,6.47
2018-09-10T01:21:42.992Z,6.57
2018-09-10T01:24:17.380Z,7.80
2018-09-10T01:26:52.316Z,7.83
2018-09-10T01:29:26.628Z,6.90
2018-09-10T01:32:01.108Z,6.53
2018-09-10T01:34:40.812Z,6.83
2018-09-10T01:37:15.132Z,6.77
2018-09-10T01:39:49.408Z,6.80
2018-09-10T01:42:23.749Z,7.17
2018-09-10T01:44:59.064Z,9.33
2018-09-10T01:47:33.544Z,6.67
2018-09-10T01:50:08.172Z,6.80
2018-09-10T01:52:42.608Z,6.70
2018-09-10T01:55:16.869Z,6.47
2018-09-10T01:57:51.520Z,6.70
2018-09-10T02:00:25.928Z,6.70
2018-09-10T02:03:00.205Z,6.80
2018-09-10T02:05:35.248Z,6.97
2018-09-10T02:08:09.625Z,7.27
2018-09-10T02:10:44.557Z,8.43
2018-09-10T02:13:19.171Z,6.67
2018-09-10T02:15:53.709Z,6.57
2018-09-10T02:18:27.951Z,6.83
2018-09-10T02:21:02.468Z,6.73
2018-09-10T02:23:36.870Z,6.30
2018-09-10T02:26:12.281Z,6.97
2018-09-10T02:28:46.856Z,6.53
2018-09-10T02:31:21.632Z,6.13
2018-09-10T02:33:56.665Z,8.50
2018-09-10T02:36:31.034Z,7.00
2018-09-10T02:39:06.909Z,7.03
2018-09-10T02:41:43.905Z,6.70
2018-09-10T02:44:18.267Z,6.70
2018-09-10T02:46:52.728Z,7.13
2018-09-10T02:49:27.521Z,6.80
2018-09-10T02:52:03.564Z,7.00
2018-09-10T02:54:38.105Z,7.03
2018-09-10T02:57:13.035Z,6.97
2018-09-10T02:59:47.343Z,7.27
2018-09-10T03:02:21.856Z,6.80
2018-09-10T03:04:56.424Z,6.80
2018-09-10T03:07:31.316Z,7.13
2018-09-10T03:10:05.932Z,7.87
2018-09-10T03:12:40.268Z,6.60
2018-09-10T03:15:14.634Z,7.20
2018-09-10T03:17:49.062Z,6.13
2018-09-10T03:20:23.616Z,6.27
2018-09-10T03:22:58.319Z,6.53
2018-09-10T03:25:32.672Z,6.70
2018-09-10T03:28:06.926Z,6.00
2018-09-10T03:30:41.266Z,7.23
2018-09-10T03:33:16.012Z,6.37
2018-09-10T03:35:50.364Z,6.53
2018-09-10T03:38:24.918Z,6.40
2018-09-10T03:40:59.442Z,6.70
2018-09-10T03:43:34.297Z,6.73
2018-09-10T03:46:08.744Z,6.07
2018-09-10T03:48:43.522Z,6.33
2018-09-10T03:51:17.824Z,6.73
2018-09-10T03:53:52.241Z,6.83
2018-09-10T03:56:27.263Z,6.47
2018-09-10T03:59:01.764Z,7.00
2018-09-10T04:01:36.521Z,7.13
2018-09-10T04:04:11.451Z,7.00
2018-09-10T04:06:46.732Z,6.53
2018-09-10T04:09:21.080Z,6.50
2018-09-10T04:11:55.669Z,6.50
2018-09-10T04:14:30.032Z,7.23
2018-09-10T04:17:05.132Z,6.50
2018-09-10T04:19:40.128Z,6.50
2018-09-10T04:22:14.999Z,6.57
2018-09-10T04:24:49.404Z,6.90
2018-09-10T04:27:24.020Z,6.70
2018-09-10T04:29:58.439Z,6.70
2018-09-10T04:32:32.930Z,6.67
2018-09-10T04:35:08.036Z,6.73
2018-09-10T04:37:42.463Z,6.67
2018-09-10T04:40:16.976Z,6.87
2018-09-10T04:42:51.411Z,6.83
2018-09-10T04:45:26.073Z,6.83
2018-09-10T04:48:00.481Z,7.03
2018-09-10T04:50:35.333Z,10.27
2018-09-10T04:53:09.675Z,10.80
2018-09-10T04:55:44.349Z,10.37
2018-09-10T04:58:19.317Z,7.30
2018-09-10T05:00:53.632Z,11.40
2018-09-10T05:03:28.024Z,8.70
2018-09-10T05:06:02.377Z,9.20
2018-09-10T05:08:36.817Z,8.00
2018-09-10T05:11:11.801Z,8.73
2018-09-10T05:13:46.461Z,8.93
2018-09-10T05:16:21.291Z,7.53
2018-09-10T05:18:55.717Z,7.30
2018-09-10T05:21:30.274Z,7.80
2018-09-10T05:24:04.980Z,8.83
2018-09-10T05:26:39.382Z,7.73
2018-09-10T05:29:13.888Z,7.73
2018-09-10T05:31:48.344Z,7.17
2018-09-10T05:34:22.648Z,8.07
2018-09-10T05:36:57.305Z,7.20
2018-09-10T05:39:31.783Z,8.10
2018-09-10T05:42:06.480Z,6.80
2018-09-10T05:44:40.937Z,7.13
2018-09-10T05:47:15.243Z,7.17
2018-09-10T05:49:49.572Z,8.30
2018-09-10T05:52:23.983Z,7.90
2018-09-10T05:54:58.900Z,9.13
2018-09-10T05:57:33.459Z,10.47
2018-09-10T06:00:09.049Z,10.00
2018-09-10T06:02:43.848Z,10.97
2018-09-10T06:05:18.583Z,8.97
2018-09-10T06:07:53.678Z,9.27
2018-09-10T06:10:28.613Z,9.57
2018-09-10T06:13:03.705Z,9.20
2018-09-10T06:15:38.530Z,9.47
2018-09-10T06:18:12.926Z,8.67
2018-09-10T06:20:47.253Z,15.77
2018-09-10T06:23:21.860Z,10.10
2018-09-10T06:25:56.791Z,9.20
2018-09-10T06:28:31.723Z,9.63
2018-09-10T06:31:06.364Z,9.43
2018-09-10T06:33:41.824Z,9.87
2018-09-10T06:36:16.303Z,9.20
2018-09-10T06:38:51.093Z,9.20
2018-09-10T06:41:25.402Z,8.40
2018-09-10T06:44:00.036Z,8.93
2018-09-10T06:46:34.837Z,8.17
2018-09-10T06:49:09.312Z,9.37
2018-09-10T06:51:43.799Z,8.23
2018-09-10T06:54:18.069Z,7.87
2018-09-10T06:56:52.396Z,8.20
2018-09-10T06:59:26.885Z,7.73
2018-09-10T07:02:01.724Z,8.77
2018-09-10T07:04:36.537Z,7.73
2018-09-10T07:07:11.072Z,8.10
2018-09-10T07:09:45.368Z,7.53
2018-09-10T07:12:19.671Z,7.23
2018-09-10T07:14:53.928Z,7.33
2018-09-10T07:17:28.420Z,8.47
2018-09-10T07:20:03.793Z,8.30
2018-09-10T07:22:38.249Z,7.20
2018-09-10T07:25:12.595Z,6.83
2018-09-10T07:27:47.067Z,7.03
2018-09-10T07:30:21.980Z,7.07
2018-09-10T07:32:56.324Z,8.63
2018-09-10T07:35:30.693Z,7.00
2018-09-10T07:38:05.637Z,6.27
2018-09-10T07:40:40.143Z,6.67
2018-09-10T07:43:14.756Z,5.90
2018-09-10T07:45:49.148Z,6.47
2018-09-10T07:48:23.585Z,6.33
2018-09-10T07:50:58.464Z,6.97
2018-09-10T07:53:33.288Z,8.73
2018-09-10T07:56:08.004Z,6.57
2018-09-10T07:58:42.700Z,6.20
2018-09-10T08:01:17.452Z,6.70
2018-09-10T08:03:52.232Z,6.60
2018-09-10T08:06:26.566Z,5.87
2018-09-10T08:09:01.248Z,6.63
2018-09-10T08:11:41.151Z,5.63
2018-09-10T08:14:15.511Z,8.93
2018-09-10T08:16:50.032Z,5.57
2018-09-10T08:19:25.712Z,5.27
2018-09-10T08:22:00.464Z,5.47
2018-09-10T08:24:35.256Z,6.07
2018-09-10T08:27:10.428Z,7.43
2018-09-10T08:29:44.955Z,9.13
2018-09-10T08:32:19.487Z,5.77
2018-09-10T08:34:53.992Z,6.57
2018-09-10T08:37:29.337Z,7.03
2018-09-10T08:40:05.182Z,8.07
2018-09-10T08:42:40.541Z,7.27
2018-09-10T08:45:15.601Z,7.60
2018-09-10T08:47:50.920Z,6.00
2018-09-10T08:50:25.408Z,9.53
2018-09-10T08:53:00.314Z,9.07
2018-09-10T08:55:35.058Z,5.53
2018-09-10T08:58:09.832Z,7.83
2018-09-10T09:00:44.636Z,6.20
2018-09-10T09:03:18.992Z,8.03
2018-09-10T09:05:54.102Z,8.00
2018-09-10T09:08:28.948Z,5.90
2018-09-10T09:11:03.684Z,7.03
2018-09-10T09:13:37.997Z,8.60
2018-09-10T09:16:12.720Z,9.53
2018-09-10T09:18:47.757Z,6.73
2018-09-10T09:21:22.648Z,5.10
2018-09-10T09:23:57.352Z,4.37
2018-09-10T09:26:32.232Z,5.07
2018-09-10T09:29:06.788Z,5.67
2018-09-10T09:31:41.231Z,5.17
2018-09-10T09:34:15.696Z,4.67
2018-09-10T09:36:55.873Z,4.63
2018-09-10T09:39:35.645Z,4.30
2018-09-10T09:42:15.512Z,5.50
2018-09-10T09:44:55.625Z,6.87
2018-09-10T09:47:30.182Z,4.90
2018-09-10T09:50:04.604Z,4.53
2018-09-10T09:52:39.165Z,6.73
2018-09-10T09:55:13.957Z,7.10
2018-09-10T09:57:48.368Z,4.03
2018-09-10T10:00:28.100Z,5.63
2018-09-10T10:03:08.050Z,4.27
2018-09-10T10:05:43.912Z,7.13
2018-09-10T10:08:18.824Z,3.70
2018-09-10T10:10:53.120Z,5.27
2018-09-10T10:13:27.467Z,3.60
2018-09-10T10:16:02.083Z,4.17
2018-09-10T10:18:36.687Z,4.50
2018-09-10T10:21:11.046Z,3.60
2018-09-10T10:23:45.342Z,6.20
2018-09-10T10:26:20.150Z,3.90
2018-09-10T10:28:54.646Z,4.47
2018-09-10T10:31:29.156Z,3.33
2018-09-10T10:34:03.825Z,3.93
2018-09-10T10:36:38.120Z,3.43
2018-09-10T10:39:12.930Z,6.03
2018-09-10T10:41:47.875Z,3.60
2018-09-10T10:44:22.243Z,3.73
2018-09-10T10:46:56.716Z,3.00
2018-09-10T10:49:31.151Z,3.63
2018-09-10T10:52:05.900Z,3.40
2018-09-10T10:54:40.343Z,3.83
2018-09-10T10:57:14.664Z,4.70
2018-09-10T10:59:49.006Z,4.13
2018-09-10T11:02:23.372Z,3.87
2018-09-10T11:04:57.667Z,4.70
2018-09-10T11:07:31.968Z,3.63
2018-09-10T11:10:07.072Z,3.67
2018-09-10T11:12:41.533Z,4.27
2018-09-10T11:15:16.126Z,3.90
2018-09-10T11:17:50.442Z,3.17
2018-09-10T11:20:24.700Z,3.20
2018-09-10T11:22:59.211Z,5.77
2018-09-10T11:25:33.801Z,4.47
2018-09-10T11:28:08.584Z,5.67
2018-09-10T11:30:43.688Z,5.90
2018-09-10T11:33:18.184Z,5.20
2018-09-10T11:35:53.766Z,3.00
2018-09-10T11:38:28.105Z,7.13
2018-09-10T11:41:03.172Z,3.93
2018-09-10T11:43:37.840Z,3.27
2018-09-10T11:46:12.324Z,4.00
2018-09-10T11:48:46.699Z,3.17
2018-09-10T11:51:21.393Z,3.70
2018-09-10T11:53:55.731Z,3.73
2018-09-10T11:56:30.133Z,3.57
2018-09-10T11:59:04.779Z,3.93
2018-09-10T12:01:39.251Z,4.10
2018-09-10T12:04:15.587Z,3.20
2018-09-10T12:06:50.193Z,3.10
2018-09-10T12:09:24.578Z,4.43
2018-09-10T12:11:59.033Z,3.60
2018-09-10T12:14:33.723Z,3.70
2018-09-10T12:17:08.212Z,5.10
2018-09-10T12:19:42.903Z,7.20
2018-09-10T12:22:17.511Z,4.00
2018-09-10T12:24:52.149Z,3.60
2018-09-10T12:27:26.764Z,3.77
2018-09-10T12:30:01.516Z,2.70
2018-09-10T12:32:36.279Z,3.40
2018-09-10T12:35:10.701Z,3.10
2018-09-10T12:37:44.980Z,3.50
2018-09-10T12:40:19.757Z,3.60
2018-09-10T12:42:54.174Z,3.90
2018-09-10T12:45:28.689Z,3.57
2018-09-10T12:48:03.334Z,5.63
2018-09-10T12:50:38.104Z,4.53
2018-09-10T12:53:12.592Z,3.30
2018-09-10T12:55:47.009Z,3.30
2018-09-10T12:58:21.856Z,3.77
2018-09-10T13:00:56.120Z,4.13
2018-09-10T13:03:30.410Z,5.97
2018-09-10T13:06:05.177Z,3.20
2018-09-10T13:08:39.977Z,3.23
2018-09-10T13:11:15.000Z,4.30
2018-09-10T13:13:50.007Z,3.80
2018-09-10T13:16:24.677Z,2.60
2018-09-10T13:18:59.240Z,2.60
2018-09-10T13:21:33.740Z,2.53
2018-09-10T13:24:08.611Z,2.40
2018-09-10T13:26:43.534Z,2.60
2018-09-10T13:29:18.351Z,2.80
2018-09-10T13:31:52.859Z,3.20
2018-09-10T13:34:27.409Z,2.50
2018-09-10T13:37:02.601Z,2.60
2018-09-10T13:39:37.448Z,2.87
2018-09-10T13:42:12.048Z,3.57
2018-09-10T13:44:47.172Z,3.57
2018-09-10T13:47:21.973Z,2.83
2018-09-10T13:49:56.488Z,2.90
2018-09-10T13:52:31.224Z,4.97
2018-09-10T13:55:06.057Z,2.60
2018-09-10T13:57:40.480Z,2.60
2018-09-10T14:00:15.625Z,2.47
2018-09-10T14:02:50.185Z,3.83
2018-09-10T14:05:24.523Z,2.67
2018-09-10T14:07:58.977Z,6.63
2018-09-10T14:10:33.867Z,4.20
2018-09-10T14:13:08.540Z,2.90
2018-09-10T14:15:43.249Z,4.17
2018-09-10T14:18:19.225Z,3.90
2018-09-10T14:20:54.340Z,3.53
2018-09-10T14:23:28.870Z,3.07
2018-09-10T14:26:03.695Z,2.53
2018-09-10T14:28:38.484Z,2.40
2018-09-10T14:31:13.483Z,2.40
2018-09-10T14:33:47.915Z,2.73
2018-09-10T14:36:22.348Z,3.77
2018-09-10T14:38:57.088Z,2.53
2018-09-10T14:41:31.994Z,2.57
2018-09-10T14:44:06.981Z,3.23
2018-09-10T14:46:41.424Z,3.60
2018-09-10T14:49:19.798Z,3.07
2018-09-10T14:52:01.158Z,2.27
2018-09-10T14:54:36.992Z,3.20
2018-09-10T14:57:11.688Z,6.40
2018-09-10T14:59:46.675Z,2.77
2018-09-10T15:02:24.430Z,2.40
2018-09-10T15:04:58.867Z,2.50
2018-09-10T15:07:33.546Z,2.97
2018-09-10T15:10:09.081Z,3.27
2018-09-10T15:12:43.557Z,3.60
2018-09-10T15:15:18.385Z,3.40
2018-09-10T15:17:52.825Z,2.90
2018-09-10T15:20:27.697Z,4.07
2018-09-10T15:23:02.780Z,3.73
2018-09-10T15:25:37.442Z,2.80
2018-09-10T15:28:11.968Z,3.83
2018-09-10T15:30:46.480Z,3.17
2018-09-10T15:33:21.416Z,5.77
2018-09-10T15:35:56.033Z,2.77
2018-09-10T15:38:31.042Z,5.13
2018-09-10T15:41:05.999Z,4.10
2018-09-10T15:43:41.355Z,6.30
2018-09-10T15:46:20.424Z,4.00
2018-09-10T15:48:55.431Z,4.23
2018-09-10T15:51:32.070Z,3.90
2018-09-10T15:54:07.091Z,3.93
2018-09-10T15:56:41.872Z,2.70
2018-09-10T15:59:18.472Z,4.20
2018-09-10T16:01:53.137Z,3.13
2018-09-10T16:04:27.576Z,2.87
2018-09-10T16:07:02.175Z,5.70
2018-09-10T16:09:37.332Z,3.03
2018-09-10T16:12:12.328Z,2.70
2018-09-10T16:14:46.857Z,2.87
2018-09-10T16:17:21.427Z,3.90
2018-09-10T16:19:56.626Z,3.40
2018-09-10T16:22:31.639Z,3.30
2018-09-10T16:25:06.767Z,3.20
2018-09-10T16:27:41.921Z,4.27
2018-09-10T16:30:16.636Z,5.00
2018-09-10T16:32:51.090Z,3.57
2018-09-10T16:35:26.107Z,3.30
2018-09-10T16:38:00.495Z,4.53
2018-09-10T16:40:35.004Z,4.23
2018-09-10T16:43:09.772Z,3.40
2018-09-10T16:45:44.173Z,7.00
2018-09-10T16:48:18.676Z,4.13
2018-09-10T16:50:55.379Z,4.33
2018-09-10T16:53:29.688Z,4.10
2018-09-10T16:56:04.171Z,4.07
2018-09-10T16:58:38.871Z,4.87
2018-09-10T17:01:13.862Z,3.77
2018-09-10T17:03:48.704Z,3.90
2018-09-10T17:06:23.253Z,4.27
2018-09-10T17:08:57.814Z,4.47
2018-09-10T17:11:32.780Z,3.07
2018-09-10T17:14:07.545Z,3.20
2018-09-10T17:16:42.204Z,5.27
2018-09-10T17:19:16.597Z,3.37
2018-09-10T17:21:51.473Z,3.70
2018-09-10T17:24:25.935Z,3.63
2018-09-10T17:27:00.488Z,3.70
2018-09-10T17:29:34.832Z,3.30
2018-09-10T17:32:09.583Z,3.30
2018-09-10T17:34:44.326Z,3.60
2018-09-10T17:37:19.578Z,3.57
2018-09-10T17:39:54.444Z,3.67
2018-09-10T17:42:28.835Z,3.80
2018-09-10T17:45:03.594Z,3.20
2018-09-10T17:47:39.413Z,5.10
2018-09-10T17:50:14.961Z,6.20
2018-09-10T17:52:51.439Z,4.90
2018-09-10T17:55:25.844Z,6.50
2018-09-10T17:58:00.829Z,5.10
2018-09-10T18:00:39.442Z,6.70
2018-09-10T18:03:14.130Z,4.27
2018-09-10T18:05:48.480Z,5.03
2018-09-10T18:08:23.424Z,4.93
2018-09-10T18:10:59.321Z,5.77
2018-09-10T18:13:34.220Z,5.37
2018-09-10T18:16:09.019Z,4.30
2018-09-10T18:18:44.946Z,6.27
2018-09-10T18:21:21.091Z,6.60
2018-09-10T18:23:56.180Z,5.13
2018-09-10T18:26:30.820Z,5.80
2018-09-10T18:29:05.750Z,5.10
2018-09-10T18:31:40.333Z,4.73
2018-09-10T18:34:19.954Z,4.73
2018-09-10T18:36:58.709Z,9.23
2018-09-10T18:39:33.308Z,6.23
2018-09-10T18:42:08.160Z,6.43
2018-09-10T18:44:42.752Z,6.57
2018-09-10T18:47:18.889Z,9.23
2018-09-10T18:49:54.650Z,5.40
2018-09-10T18:52:29.093Z,4.60
2018-09-10T18:55:05.658Z,4.87
2018-09-10T18:57:40.577Z,4.60
2018-09-10T19:00:15.392Z,5.17
2018-09-10T19:02:50.852Z,6.70
2018-09-10T19:05:25.136Z,4.87
2018-09-10T19:07:59.534Z,6.10
2018-09-10T19:10:36.550Z,7.07
2018-09-10T19:13:11.220Z,4.77
2018-09-10T19:15:45.628Z,5.37
2018-09-10T19:18:20.548Z,5.20
2018-09-10T19:20:57.108Z,6.10
2018-09-10T19:23:32.113Z,6.30
2018-09-10T19:26:07.060Z,5.37
2018-09-10T19:28:41.474Z,8.10
2018-09-10T19:31:18.127Z,6.53
2018-09-10T19:33:53.247Z,4.63
2018-09-10T19:36:27.629Z,5.10
2018-09-10T19:39:04.043Z,6.53
2018-09-10T19:41:39.361Z,5.77
2018-09-10T19:44:18.850Z,5.00
2018-09-10T19:46:55.024Z,7.43
2018-09-10T19:49:33.633Z,5.50
2018-09-10T19:54:47.876Z,6.37
2018-09-10T19:57:23.766Z,8.40
2018-09-10T20:00:01.295Z,5.43
2018-09-10T20:02:38.374Z,5.20
2018-09-10T20:05:13.212Z,5.33
2018-09-10T20:07:51.586Z,5.10
2018-09-10T20:10:26.160Z,6.53
2018-09-10T20:13:05.105Z,5.07
2018-09-10T20:15:40.020Z,5.60
2018-09-10T20:18:24.816Z,7.33
2018-09-10T20:21:00.711Z,5.00
2018-09-10T20:23:35.270Z,4.57
2018-09-10T20:26:10.447Z,6.07
2018-09-10T20:28:45.348Z,5.93
2018-09-10T20:31:19.971Z,5.83
2018-09-10T20:34:06.499Z,7.67
2018-09-10T20:36:51.068Z,5.87
2018-09-10T20:39:25.544Z,6.03
2018-09-10T20:42:02.324Z,4.30
2018-09-10T20:44:36.936Z,5.37
2018-09-10T20:47:11.538Z,4.53
2018-09-10T20:49:46.195Z,4.80
2018-09-10T20:52:21.677Z,5.00
2018-09-10T20:54:56.216Z,4.20
2018-09-10T20:57:30.958Z,4.37
2018-09-10T21:00:05.483Z,4.43
2018-09-10T21:02:40.064Z,4.83
2018-09-10T21:05:14.523Z,4.20
2018-09-10T21:07:48.968Z,4.20
2018-09-10T21:10:23.690Z,5.37
2018-09-10T21:12:58.463Z,4.87
2018-09-10T21:15:42.704Z,4.07
2018-09-10T21:18:21.175Z,4.40
2018-09-10T21:20:55.839Z,4.20
2018-09-10T21:23:32.617Z,4.30
2018-09-10T21:26:07.977Z,4.20
2018-09-10T21:28:42.463Z,4.33
2018-09-10T21:31:16.995Z,4.57
2018-09-10T21:33:51.764Z,5.97
2018-09-10T21:36:26.113Z,5.43
2018-09-10T21:39:00.943Z,4.40
2018-09-10T21:41:35.993Z,3.90
2018-09-10T21:44:10.937Z,5.10
2018-09-10T21:46:45.983Z,6.37
2018-09-10T21:49:29.067Z,4.87
2018-09-10T21:52:04.168Z,3.93
2018-09-10T21:54:39.234Z,4.13
2018-09-10T21:57:14.787Z,4.20
2018-09-10T21:59:49.723Z,4.30
2018-09-10T22:02:24.460Z,4.20
2018-09-10T22:04:59.016Z,4.73
2018-09-10T22:07:33.458Z,5.37
2018-09-10T22:10:08.335Z,4.40
2018-09-10T22:12:43.212Z,5.53
2018-09-10T22:15:17.974Z,4.27
2018-09-10T22:17:52.799Z,4.63
2018-09-10T22:20:27.832Z,4.13
2018-09-10T22:23:02.428Z,5.80
2018-09-10T22:25:36.947Z,4.20
2018-09-10T22:28:11.657Z,4.13
2018-09-10T22:30:46.300Z,5.20
2018-09-10T22:33:20.979Z,4.43
2018-09-10T22:35:55.483Z,6.50
2018-09-10T22:38:30.416Z,4.10
2018-09-10T22:41:05.497Z,4.10
2018-09-10T22:43:40.248Z,5.07
2018-09-10T22:46:15.056Z,4.70
2018-09-10T22:48:49.734Z,4.13
2018-09-10T22:51:24.294Z,4.23
2018-09-10T22:53:58.836Z,4.57
2018-09-10T22:56:34.107Z,4.20
2018-09-10T22:59:08.535Z,4.27
2018-09-10T23:01:44.338Z,4.97
2018-09-10T23:04:18.780Z,4.40
2018-09-10T23:06:54.427Z,4.30
2018-09-10T23:12:36.310Z,5.13
2018-09-10T23:15:11.704Z,4.03
2018-09-10T23:17:46.215Z,5.30
2018-09-10T23:20:20.655Z,4.17
2018-09-10T23:22:55.340Z,5.20
2018-09-10T23:25:33.225Z,5.03
2018-09-10T23:28:08.096Z,4.67
2018-09-10T23:30:43.066Z,4.20
2018-09-10T23:33:17.375Z,7.00
2018-09-10T23:35:52.080Z,6.83
2018-09-10T23:38:26.511Z,4.07
2018-09-10T23:41:00.955Z,6.47
2018-09-10T23:43:35.432Z,5.70
2018-09-10T23:46:09.889Z,5.67
2018-09-10T23:48:44.654Z,4.30
2018-09-10T23:51:19.000Z,4.40
2018-09-10T23:53:53.746Z,4.67
2018-09-10T23:56:28.703Z,4.30
2018-09-10T23:59:02.995Z,4.57
